Time;durP1;ratioP1;P1;durP2;ratioP2;P2;SDS_P1;SDS_P2;PMS_P1;PMS_P2;Temp;Humidity;BMP_temperature;BMP_pressure;BME280_temperature;BME280_humidity;BME280_pressure;Samples;Min_cycle;Max_cycle;Signal;HPM_P1;HPM_P2
2022/10/20 00:01:22;;;;;;;6.55;2.52;;;;;;;7.72;73.09;98229.75;1687920;83;21049;-78
2022/10/20 00:03:50;;;;;;;6.12;2.77;;;;;;;7.76;73.10;98230.14;1685883;84;20992;-78
2022/10/20 00:06:23;;;;;;;4.83;2.67;;;;;;;7.74;73.37;98233.26;1680861;84;20981;-78
2022/10/20 00:08:53;;;;;;;5.40;3.05;;;;;;;7.66;73.15;98226.77;1690782;84;21044;-78
2022/10/20 00:11:21;;;;;;;5.58;2.50;;;;;;;7.61;73.51;98236.52;1696125;84;20972;-78
2022/10/20 00:13:52;;;;;;;5.33;3.15;;;;;;;7.56;73.65;98227.77;1709069;83;21021;-78
2022/10/20 00:16:20;;;;;;;7.20;3.17;;;;;;;7.51;73.69;98234.88;1697111;84;21106;-77
2022/10/20 00:18:49;;;;;;;4.78;2.70;;;;;;;7.44;73.82;98231.47;1698611;84;22162;-77
2022/10/20 00:21:21;;;;;;;5.10;2.52;;;;;;;7.40;74.20;98227.98;1687350;83;21004;-77
2022/10/20 00:23:48;;;;;;;5.58;2.40;;;;;;;7.41;74.34;98224.91;1695011;82;21029;-77
2022/10/20 00:26:25;;;;;;;3.40;2.58;;;;;;;7.40;74.29;98223.17;1693193;83;20992;-77
2022/10/20 00:28:52;;;;;;;4.12;2.58;;;;;;;7.33;74.18;98226.76;1697827;84;21001;-77
2022/10/20 00:31:21;;;;;;;5.50;2.52;;;;;;;7.23;74.18;98232.14;1685612;83;21070;-76
2022/10/20 00:33:47;;;;;;;5.47;2.70;;;;;;;7.16;74.23;98233.13;1664149;84;21036;-77
2022/10/20 00:36:18;;;;;;;5.83;2.87;;;;;;;7.08;74.39;98230.58;1692475;84;21486;-76
2022/10/20 00:38:47;;;;;;;5.50;2.65;;;;;;;7.02;74.12;98239.85;1693906;84;21101;-76
2022/10/20 00:41:18;;;;;;;3.37;2.62;;;;;;;6.93;74.31;98232.08;1692211;84;21067;-76
2022/10/20 00:43:58;;;;;;;7.20;2.95;;;;;;;6.90;74.77;98232.09;1706912;84;20993;-76
2022/10/20 00:46:33;;;;;;;5.55;3.30;;;;;;;6.88;74.52;98229.94;1686563;84;21011;-76
2022/10/20 00:49:13;;;;;;;3.72;2.60;;;;;;;6.85;74.69;98226.89;1683612;84;21035;-76
2022/10/20 00:51:40;;;;;;;7.58;2.80;;;;;;;6.79;74.46;98225.63;1692874;84;20970;-76
2022/10/20 00:54:12;;;;;;;3.37;2.70;;;;;;;6.75;74.59;98228.73;1668969;83;20997;-76
2022/10/20 00:56:42;;;;;;;6.37;3.10;;;;;;;6.70;74.62;98228.80;1707730;83;21046;-76
2022/10/20 00:59:14;;;;;;;4.67;3.30;;;;;;;6.65;74.59;98220.07;1699611;83;21494;-76
2022/10/20 01:01:41;;;;;;;9.78;3.33;;;;;;;6.58;74.66;98222.32;1702550;83;21418;-76
2022/10/20 01:04:08;;;;;;;6.97;3.72;;;;;;;6.47;74.93;98225.94;1713553;83;21453;-76
2022/10/20 01:06:35;;;;;;;5.62;3.25;;;;;;;6.41;74.81;98230.38;1708365;83;21004;-76
2022/10/20 01:09:06;;;;;;;5.53;2.92;;;;;;;6.32;75.17;98223.44;1717005;83;20977;-75
2022/10/20 01:11:50;;;;;;;4.65;3.10;;;;;;;6.21;75.22;98235.37;1709030;83;21518;-76
2022/10/20 01:14:52;;;;;;;4.47;3.15;;;;;;;6.12;75.51;98240.27;1724308;83;21009;-76
2022/10/20 01:17:30;;;;;;;5.90;2.90;;;;;;;6.09;76.29;98248.64;1696861;83;21066;-76
2022/10/20 01:20:14;;;;;;;4.50;2.62;;;;;;;6.08;76.10;98250.38;1697706;83;20985;-76
2022/10/20 01:22:54;;;;;;;4.10;3.05;;;;;;;6.04;76.15;98240.33;1690540;83;21094;-77
2022/10/20 01:26:04;;;;;;;5.55;3.10;;;;;;;6.04;76.77;98247.34;1622619;86;20974;-77
2022/10/20 01:28:52;;;;;;;4.85;3.00;;;;;;;6.01;76.26;98246.00;1636029;88;21017;-77
2022/10/20 01:31:51;;;;;;;4.75;2.72;;;;;;;5.91;76.42;98247.84;1675079;84;21477;-75
2022/10/20 01:34:28;;;;;;;5.90;3.22;;;;;;;5.87;76.76;98255.31;1648849;84;21012;-76
2022/10/20 01:37:03;;;;;;;6.15;3.35;;;;;;;5.82;76.50;98259.30;1655503;84;20982;-86
2022/10/20 01:39:42;;;;;;;4.10;2.90;;;;;;;5.79;76.64;98255.36;1693272;82;21002;-86
2022/10/20 01:42:19;;;;;;;3.95;2.62;;;;;;;5.76;77.31;98257.57;1683254;84;21022;-86
2022/10/20 01:44:54;;;;;;;5.78;3.12;;;;;;;5.76;77.01;98259.31;1712752;82;21020;-86
2022/10/20 01:47:25;;;;;;;10.58;3.15;;;;;;;5.70;77.79;98264.62;1700485;84;20938;-86
2022/10/20 01:49:52;;;;;;;4.00;2.83;;;;;;;5.68;77.24;98267.25;1674262;84;20994;-86
2022/10/20 01:52:21;;;;;;;3.85;2.87;;;;;;;5.65;77.97;98258.08;1687452;84;21031;-86
2022/10/20 01:54:47;;;;;;;5.60;3.35;;;;;;;5.72;78.14;98270.76;1699244;83;20998;-86
2022/10/20 01:57:43;;;;;;;4.80;2.83;;;;;;;5.73;79.39;98273.36;1685418;84;21087;-86
2022/10/20 02:00:16;;;;;;;3.98;2.83;;;;;;;5.83;78.82;98274.62;1675589;84;20994;-86
2022/10/20 02:03:22;;;;;;;5.37;3.00;;;;;;;5.91;78.74;98277.66;1664451;84;21007;-86
2022/10/20 02:06:20;;;;;;;5.00;2.98;;;;;;;5.90;78.11;98282.46;1678847;84;21058;-86
2022/10/20 02:08:59;;;;;;;4.55;2.70;;;;;;;5.97;78.57;98284.62;1618261;86;20987;-85
2022/10/20 02:11:44;;;;;;;4.78;2.77;;;;;;;6.02;78.31;98292.50;1635647;87;20973;-85
2022/10/20 02:14:15;;;;;;;5.17;3.20;;;;;;;6.02;78.45;98293.81;1690564;84;20993;-85
2022/10/20 02:16:46;;;;;;;4.05;2.98;;;;;;;5.99;78.23;98293.83;1685495;84;21029;-86
2022/10/20 02:19:16;;;;;;;4.58;3.00;;;;;;;6.00;78.67;98297.77;1691374;82;20958;-87
2022/10/20 02:21:45;;;;;;;5.70;2.95;;;;;;;6.01;78.43;98307.41;1684538;84;21476;-86
2022/10/20 02:24:16;;;;;;;5.17;2.47;;;;;;;5.99;78.47;98310.50;1685588;84;20938;-86
2022/10/20 02:26:43;;;;;;;6.78;2.65;;;;;;;6.02;78.59;98310.92;1696762;84;21102;-86
2022/10/20 02:29:20;;;;;;;4.70;2.83;;;;;;;6.02;79.34;98313.55;1689067;84;21009;-85
2022/10/20 02:31:47;;;;;;;4.67;3.10;;;;;;;6.03;78.50;98316.64;1686813;82;20986;-84
2022/10/20 02:34:14;;;;;;;6.47;3.00;;;;;;;6.04;78.71;98314.00;1670901;84;21795;-84
2022/10/20 02:36:42;;;;;;;5.03;2.95;;;;;;;6.06;78.62;98321.44;1697404;83;21387;-83
2022/10/20 02:39:10;;;;;;;4.03;2.98;;;;;;;6.07;78.42;98334.16;1705232;83;21031;-83
2022/10/20 02:41:37;;;;;;;6.60;2.85;;;;;;;6.03;78.71;98335.06;1699333;83;21054;-83
2022/10/20 02:44:04;;;;;;;4.78;2.62;;;;;;;6.01;78.80;98323.19;1724042;83;21489;-84
2022/10/20 02:46:30;;;;;;;4.42;2.98;;;;;;;6.06;78.71;98320.12;1701239;83;21010;-83
2022/10/20 02:48:57;;;;;;;4.22;3.00;;;;;;;6.11;78.58;98325.38;1705179;83;21003;-83
2022/10/20 02:51:23;;;;;;;6.10;2.75;;;;;;;6.07;78.61;98327.13;1703827;83;21001;-86
2022/10/20 02:53:49;;;;;;;6.42;2.95;;;;;;;6.06;78.70;98326.70;1709038;83;21052;-86
2022/10/20 02:56:16;;;;;;;5.28;2.95;;;;;;;6.06;79.18;98325.38;1692386;84;20998;-86
2022/10/20 02:58:42;;;;;;;5.28;3.00;;;;;;;6.12;79.13;98324.91;1685177;84;21445;-85
2022/10/20 03:01:09;;;;;;;4.75;2.62;;;;;;;6.10;78.92;98324.91;1690211;84;21021;-85
2022/10/20 03:03:35;;;;;;;5.35;2.87;;;;;;;6.10;79.53;98318.33;1697970;84;20986;-85
2022/10/20 03:06:14;;;;;;;3.10;2.30;;;;;;;6.08;79.39;98334.59;1689123;84;21004;-85
2022/10/20 03:08:42;;;;;;;5.92;3.15;;;;;;;6.06;79.93;98331.95;1710870;82;21021;-85
2022/10/20 03:11:09;;;;;;;4.87;2.80;;;;;;;6.10;79.66;98338.53;1683393;84;21077;-86
2022/10/20 03:13:35;;;;;;;3.62;2.50;;;;;;;6.06;79.63;98334.59;1695307;84;21057;-86
2022/10/20 03:16:03;;;;;;;3.47;2.50;;;;;;;6.03;79.67;98332.42;1679250;84;20996;-87
2022/10/20 03:18:33;;;;;;;5.53;2.80;;;;;;;6.02;79.84;98342.49;1677115;84;20985;-87
2022/10/20 03:21:01;;;;;;;7.03;2.98;;;;;;;6.00;79.72;98342.92;1680547;84;20976;-86
2022/10/20 03:23:28;;;;;;;4.85;2.90;;;;;;;5.99;79.89;98351.70;1680157;84;21436;-86
2022/10/20 03:26:05;;;;;;;5.12;2.67;;;;;;;6.01;79.97;98352.13;1663585;84;21016;-86
2022/10/20 03:28:32;;;;;;;9.20;2.70;;;;;;;6.01;79.92;98350.81;1678289;84;21041;-85
2022/10/20 03:30:59;;;;;;;7.00;2.65;;;;;;;5.99;80.19;98356.97;1689944;84;21013;-87
2022/10/20 03:33:26;;;;;;;5.22;3.00;;;;;;;5.95;80.04;98358.28;1696025;84;20997;-86
2022/10/20 03:35:52;;;;;;;3.35;2.58;;;;;;;5.93;79.72;98356.12;1687478;84;21447;-87
2022/10/20 03:38:19;;;;;;;5.55;2.90;;;;;;;5.90;79.85;98356.58;1695010;84;21119;-86
2022/10/20 03:40:45;;;;;;;5.12;3.70;;;;;;;5.89;79.78;98363.59;1691194;84;20995;-86
2022/10/20 03:43:14;;;;;;;5.95;3.05;;;;;;;5.87;80.04;98354.84;1684734;84;21031;-86
2022/10/20 03:45:43;;;;;;;4.62;3.02;;;;;;;5.83;79.76;98356.16;1662922;84;21003;-86
2022/10/20 03:48:11;;;;;;;6.45;3.20;;;;;;;5.71;79.59;98356.66;1681996;84;21033;-86
2022/10/20 03:50:41;;;;;;;7.12;3.40;;;;;;;5.63;79.61;98364.58;1691786;84;20956;-86
2022/10/20 03:53:13;;;;;;;5.08;3.50;;;;;;;5.56;79.85;98351.00;1696295;84;21377;-87
2022/10/20 03:55:39;;;;;;;5.75;3.10;;;;;;;5.47;79.93;98349.29;1694957;83;21048;-85
2022/10/20 03:58:07;;;;;;;4.25;3.22;;;;;;;5.39;79.72;98351.05;1723648;83;21087;-85
2022/10/20 04:00:33;;;;;;;6.22;3.52;;;;;;;5.32;79.88;98357.22;1710210;83;21042;-84
2022/10/20 04:02:59;;;;;;;8.33;3.22;;;;;;;5.25;79.81;98358.56;1708728;83;20993;-85
2022/10/20 04:05:26;;;;;;;7.45;3.67;;;;;;;5.17;79.63;98352.44;1696004;83;20977;-85
2022/10/20 04:07:52;;;;;;;8.45;3.40;;;;;;;5.07;79.90;98352.88;1713424;83;21112;-84
2022/10/20 04:10:19;;;;;;;7.35;3.70;;;;;;;4.98;80.37;98356.40;1691265;83;21077;-84
2022/10/20 04:12:47;;;;;;;8.00;3.42;;;;;;;4.93;80.51;98358.16;1713929;83;21390;-84
2022/10/20 04:15:14;;;;;;;7.55;3.55;;;;;;;4.87;80.42;98362.97;1693087;83;21007;-85
2022/10/20 04:17:41;;;;;;;8.23;3.22;;;;;;;4.83;80.63;98362.56;1710875;83;21014;-85
2022/10/20 04:20:09;;;;;;;6.97;3.80;;;;;;;4.80;80.80;98358.61;1717753;83;20973;-84
2022/10/20 04:22:36;;;;;;;5.12;3.33;;;;;;;4.75;80.48;98359.05;1709404;83;21021;-85
2022/10/20 04:25:04;;;;;;;7.80;3.50;;;;;;;4.70;80.70;98354.23;1693673;83;21017;-85
2022/10/20 04:27:30;;;;;;;6.40;4.25;;;;;;;4.68;80.64;98348.09;1707479;83;21037;-85
2022/10/20 04:29:56;;;;;;;4.62;3.50;;;;;;;4.65;80.72;98352.91;1716279;83;20975;-85
2022/10/20 04:32:22;;;;;;;5.75;3.55;;;;;;;4.62;81.31;98347.22;1701032;83;22123;-84
2022/10/20 04:34:49;;;;;;;4.25;3.45;;;;;;;4.67;81.59;98351.17;1710043;83;21474;-84
2022/10/20 04:37:15;;;;;;;4.65;3.40;;;;;;;4.64;81.42;98347.68;1721274;83;21060;-84
2022/10/20 04:39:42;;;;;;;5.90;3.00;;;;;;;4.59;81.37;98340.67;1699687;83;21435;-84
2022/10/20 04:42:08;;;;;;;5.22;3.22;;;;;;;4.57;81.36;98350.74;1695693;83;21055;-84
2022/10/20 04:44:35;;;;;;;4.95;3.47;;;;;;;4.60;81.51;98350.30;1701335;83;21044;-86
2022/10/20 04:47:01;;;;;;;4.58;3.30;;;;;;;4.59;81.25;98352.48;1719001;83;20992;-86
2022/10/20 04:49:28;;;;;;;6.58;3.27;;;;;;;4.56;81.64;98356.41;1715912;83;21426;-86
2022/10/20 04:51:54;;;;;;;8.40;3.30;;;;;;;4.54;81.51;98355.97;1687049;83;21014;-82
2022/10/20 04:54:20;;;;;;;5.25;3.35;;;;;;;4.54;81.68;98353.34;1703620;83;21411;-83
2022/10/20 04:56:49;;;;;;;5.62;2.77;;;;;;;4.54;81.67;98360.80;1706928;82;21446;-83
2022/10/20 04:59:15;;;;;;;4.92;2.50;;;;;;;4.56;81.85;98366.02;1724202;83;21011;-83
2022/10/20 05:01:42;;;;;;;5.10;2.58;;;;;;;4.59;82.54;98369.55;1703237;83;21389;-84
2022/10/20 05:04:10;;;;;;;10.25;3.45;;;;;;;4.61;81.82;98374.81;1690854;83;21005;-84
2022/10/20 05:06:36;;;;;;;5.25;2.72;;;;;;;4.62;81.92;98376.09;1706596;83;21381;-84
2022/10/20 05:09:06;;;;;;;6.92;3.02;;;;;;;4.61;81.94;98380.92;1708252;83;21060;-84
2022/10/20 05:11:35;;;;;;;6.05;2.77;;;;;;;4.62;81.82;98379.18;1705683;83;21426;-83
2022/10/20 05:14:02;;;;;;;5.85;2.75;;;;;;;4.62;82.07;98392.30;1709530;83;20975;-84
2022/10/20 05:16:29;;;;;;;3.40;2.50;;;;;;;4.67;81.76;98389.67;1700350;83;21044;-85
2022/10/20 05:18:56;;;;;;;3.67;2.72;;;;;;;4.72;81.70;98394.48;1713935;83;21009;-86
2022/10/20 05:21:28;;;;;;;5.75;2.90;;;;;;;4.78;81.47;98405.02;1696491;83;21496;-86
2022/10/20 05:24:00;;;;;;;5.87;2.83;;;;;;;4.79;81.38;98401.51;1705507;83;21048;-85
2022/10/20 05:26:33;;;;;;;4.37;2.40;;;;;;;4.81;81.34;98410.70;1696708;83;20980;-86
2022/10/20 05:28:57;;;;;;;5.47;2.70;;;;;;;4.84;80.94;98418.14;1714998;83;21505;-86
2022/10/20 05:31:23;;;;;;;5.65;2.87;;;;;;;4.88;80.56;98419.89;1691236;83;21047;-85
2022/10/20 05:33:54;;;;;;;5.30;2.90;;;;;;;4.91;80.50;98416.82;1705356;83;20999;-86
2022/10/20 05:36:24;;;;;;;3.65;2.67;;;;;;;4.93;80.36;98415.94;1689587;83;21051;-85
2022/10/20 05:38:54;;;;;;;3.55;2.30;;;;;;;4.96;80.29;98422.52;1698022;83;20984;-85
2022/10/20 05:41:28;;;;;;;4.78;2.52;;;;;;;4.98;80.11;98416.81;1685635;83;20999;-85
2022/10/20 05:43:58;;;;;;;5.35;2.83;;;;;;;4.98;79.98;98426.01;1705916;83;21474;-85
2022/10/20 05:46:28;;;;;;;8.03;3.00;;;;;;;4.99;79.84;98433.47;1689576;83;21003;-85
2022/10/20 05:48:58;;;;;;;4.12;2.50;;;;;;;5.03;79.75;98433.91;1707612;83;21115;-85
2022/10/20 05:51:29;;;;;;;4.83;3.05;;;;;;;5.05;79.74;98437.39;1695152;83;21018;-87
2022/10/20 05:53:57;;;;;;;3.95;3.08;;;;;;;5.09;79.46;98436.95;1699632;83;20982;-86
2022/10/20 05:56:27;;;;;;;4.97;3.05;;;;;;;5.08;79.40;98426.90;1685920;83;21157;-87
2022/10/20 05:58:55;;;;;;;3.80;2.27;;;;;;;5.15;79.26;98444.39;1682594;84;21057;-76
2022/10/20 06:01:37;;;;;;;3.77;2.30;;;;;;;5.19;78.87;98445.27;1686196;84;21034;-76
2022/10/20 06:03:59;;;;;;;3.85;2.05;;;;;;;5.26;78.55;98442.20;1682735;84;21024;-76
2022/10/20 06:06:29;;;;;;;4.65;2.90;;;;;;;5.32;78.16;98442.64;1686785;84;20994;-77
2022/10/20 06:08:59;;;;;;;7.95;3.60;;;;;;;5.38;78.30;98444.83;1688073;84;21012;-77
2022/10/20 06:11:27;;;;;;;6.15;3.37;;;;;;;5.47;78.24;98454.87;1684220;84;21423;-77
2022/10/20 06:13:55;;;;;;;3.75;2.67;;;;;;;5.58;78.28;98462.75;1682761;84;21003;-76
2022/10/20 06:16:25;;;;;;;3.67;1.95;;;;;;;5.66;78.29;98462.30;1681062;84;21049;-76
2022/10/20 06:18:52;;;;;;;3.98;2.05;;;;;;;5.74;78.21;98463.59;1689832;84;21001;-76
2022/10/20 06:21:23;;;;;;;3.95;2.05;;;;;;;5.83;78.25;98470.16;1681522;84;21103;-76
2022/10/20 06:23:50;;;;;;;4.87;2.42;;;;;;;5.93;78.20;98476.25;1681481;84;21039;-76
2022/10/20 06:26:22;;;;;;;3.42;1.62;;;;;;;6.04;77.89;98474.94;1680875;84;21028;-76
2022/10/20 06:28:53;;;;;;;3.00;1.75;;;;;;;6.12;77.63;98481.06;1681755;84;21029;-77
2022/10/20 06:31:25;;;;;;;3.95;1.77;;;;;;;6.22;76.09;98478.39;1683971;84;21019;-77
2022/10/20 06:33:52;;;;;;;2.80;1.40;;;;;;;6.31;76.14;98480.98;1688449;84;21006;-77
2022/10/20 06:36:21;;;;;;;2.45;1.22;;;;;;;6.41;76.15;98484.01;1682369;84;21031;-77
2022/10/20 06:38:53;;;;;;;2.42;1.70;;;;;;;6.49;74.71;98483.97;1685881;84;21034;-78
2022/10/20 06:41:20;;;;;;;3.02;1.80;;;;;;;6.56;74.50;98487.45;1671005;84;20996;-77
2022/10/20 06:43:47;;;;;;;5.50;1.70;;;;;;;6.62;72.75;98495.73;1688217;84;20998;-77
2022/10/20 06:46:17;;;;;;;1.90;1.32;;;;;;;6.66;71.50;98488.26;1677735;84;21003;-77
2022/10/20 06:48:47;;;;;;;3.33;1.47;;;;;;;6.70;71.50;98490.88;1696605;84;21562;-77
2022/10/20 06:51:18;;;;;;;2.33;1.40;;;;;;;6.75;71.50;98488.20;1687300;84;20981;-77
2022/10/20 06:53:45;;;;;;;3.00;1.20;;;;;;;6.75;69.58;98496.11;1701396;84;20989;-78
2022/10/20 06:56:15;;;;;;;4.78;2.30;;;;;;;6.77;71.31;98490.84;1681818;84;20981;-78
2022/10/20 06:58:45;;;;;;;5.45;2.02;;;;;;;6.85;70.31;98498.27;1693820;83;21044;-77
2022/10/20 07:01:18;;;;;;;2.05;1.35;;;;;;;6.90;70.21;98500.42;1696192;83;20948;-77
2022/10/20 07:03:47;;;;;;;3.47;1.47;;;;;;;6.95;70.53;98496.42;1684991;83;21030;-77
2022/10/20 07:06:18;;;;;;;4.30;1.70;;;;;;;6.98;70.35;98497.27;1693324;83;20973;-78
2022/10/20 07:08:45;;;;;;;3.15;1.25;;;;;;;7.04;70.85;98502.06;1700974;83;21061;-79
2022/10/20 07:11:16;;;;;;;1.87;1.07;;;;;;;7.08;68.81;98497.20;1697419;83;20999;-79
2022/10/20 07:13:45;;;;;;;1.40;1.02;;;;;;;7.16;68.72;98492.77;1704922;83;21439;-76
2022/10/20 07:16:14;;;;;;;2.12;0.95;;;;;;;7.22;66.35;98497.09;1691514;83;21038;-76
2022/10/20 07:18:41;;;;;;;2.02;1.20;;;;;;;7.28;65.80;98508.05;1695104;83;21401;-76
2022/10/20 07:21:13;;;;;;;1.37;1.00;;;;;;;7.33;66.27;98516.36;1692449;83;21801;-75
2022/10/20 07:23:40;;;;;;;2.75;1.10;;;;;;;7.37;64.43;98502.27;1693227;83;21465;-78
2022/10/20 07:26:14;;;;;;;13.93;6.90;;;;;;;7.44;66.03;98504.84;1688307;83;21092;-79
2022/10/20 07:28:45;;;;;;;5.45;3.05;;;;;;;7.50;66.91;98514.02;1692782;83;20999;-78
2022/10/20 07:31:20;;;;;;;2.80;1.60;;;;;;;7.54;66.86;98517.06;1695264;83;20999;-77
2022/10/20 07:33:47;;;;;;;2.90;1.20;;;;;;;7.59;67.35;98518.32;1692452;83;20983;-78
2022/10/20 07:36:23;;;;;;;2.27;1.00;;;;;;;7.63;67.09;98524.00;1690795;83;20981;-74
2022/10/20 07:38:53;;;;;;;1.82;0.90;;;;;;;7.69;66.69;98513.85;1696110;83;21385;-75
2022/10/20 07:41:20;;;;;;;2.20;0.82;;;;;;;7.73;66.31;98513.79;1688827;83;21598;-71
2022/10/20 07:43:48;;;;;;;2.47;1.20;;;;;;;7.79;64.98;98513.75;1697419;83;21004;-71
2022/10/20 07:46:15;;;;;;;1.30;0.85;;;;;;;7.86;65.22;98517.64;1693021;83;21046;-71
2022/10/20 07:48:42;;;;;;;1.32;0.90;;;;;;;7.92;64.36;98518.89;1693843;83;20972;-70
2022/10/20 07:51:33;;;;;;;2.12;0.85;;;;;;;8.00;63.56;98507.82;1704466;83;21084;-70
2022/10/20 07:54:07;;;;;;;0.90;0.70;;;;;;;8.09;63.16;98507.30;1696565;83;21047;-81
2022/10/20 07:56:38;;;;;;;1.30;0.90;;;;;;;8.16;60.39;98516.45;1693636;83;21067;-81
2022/10/20 07:59:08;;;;;;;1.37;0.90;;;;;;;8.21;61.09;98515.06;1659792;85;21073;-82
2022/10/20 08:01:35;;;;;;;2.80;1.10;;;;;;;8.26;60.31;98521.16;1658909;85;20989;-80
2022/10/20 08:04:02;;;;;;;2.25;1.00;;;;;;;8.32;61.48;98523.72;1632871;87;20977;-81
2022/10/20 08:06:29;;;;;;;2.33;0.90;;;;;;;8.37;61.49;98512.23;1629006;86;21035;-82
2022/10/20 08:08:56;;;;;;;2.30;0.93;;;;;;;8.41;59.38;98525.41;1632243;87;21139;-83
2022/10/20 08:11:23;;;;;;;0.93;0.62;;;;;;;8.47;60.71;98514.33;1662427;85;21101;-81
2022/10/20 08:13:51;;;;;;;5.05;1.10;;;;;;;8.54;59.33;98519.98;1665518;85;21076;-82
2022/10/20 08:16:22;;;;;;;1.32;0.80;;;;;;;8.62;59.31;98522.08;1662460;85;21017;-81
2022/10/20 08:18:49;;;;;;;1.57;0.80;;;;;;;8.66;58.14;98521.59;1668897;85;21005;-83
2022/10/20 08:21:25;;;;;;;1.10;0.80;;;;;;;8.70;59.22;98518.91;1661273;85;21021;-82
2022/10/20 08:23:50;;;;;;;1.90;0.75;;;;;;;8.76;58.88;98514.42;1660829;85;21474;-72
2022/10/20 08:26:23;;;;;;;1.00;0.75;;;;;;;8.79;59.61;98517.01;1657663;85;21012;-71
2022/10/20 08:28:52;;;;;;;1.70;0.75;;;;;;;8.82;57.21;98523.15;1657081;85;21052;-71
2022/10/20 08:31:20;;;;;;;2.27;0.78;;;;;;;8.89;58.58;98521.73;1656915;85;21503;-72
2022/10/20 08:33:47;;;;;;;0.70;0.57;;;;;;;8.92;56.72;98530.48;1658153;85;20978;-71
2022/10/20 08:36:14;;;;;;;1.55;0.78;;;;;;;8.95;56.45;98528.24;1657019;85;21483;-70
2022/10/20 08:38:43;;;;;;;2.90;0.70;;;;;;;8.94;54.98;98524.75;1655407;85;21248;-70
2022/10/20 08:41:24;;;;;;;1.77;0.60;;;;;;;8.97;55.33;98527.33;1656702;85;21029;-70
2022/10/20 08:43:54;;;;;;;3.90;0.90;;;;;;;8.97;54.33;98521.19;1660828;85;21021;-70
2022/10/20 08:46:35;;;;;;;1.32;0.70;;;;;;;9.02;54.36;98529.03;1658363;85;20977;-71
2022/10/20 08:49:05;;;;;;;1.90;0.60;;;;;;;9.02;54.29;98525.95;1681571;85;21384;-70
2022/10/20 08:51:37;;;;;;;1.75;0.93;;;;;;;9.04;54.52;98528.55;1668246;85;21065;-70
2022/10/20 08:54:09;;;;;;;1.60;0.70;;;;;;;9.06;54.85;98543.49;1683950;85;21037;-70
2022/10/20 08:56:36;;;;;;;0.62;0.40;;;;;;;9.09;54.26;98528.92;1683133;85;21459;-70
2022/10/20 08:59:03;;;;;;;2.25;0.68;;;;;;;9.08;53.95;98535.55;1716768;83;21060;-71
2022/10/20 09:01:35;;;;;;;0.93;0.70;;;;;;;9.13;53.58;98527.56;1703353;83;21443;-70
2022/10/20 09:04:18;;;;;;;2.98;0.85;;;;;;;9.22;54.15;98531.39;1722982;83;21012;-70
2022/10/20 09:06:50;;;;;;;1.67;0.90;;;;;;;9.28;53.93;98533.94;1723622;83;21019;-70
2022/10/20 09:09:19;;;;;;;0.82;0.57;;;;;;;9.31;53.22;98545.80;1724174;83;20985;-70
2022/10/20 09:11:47;;;;;;;1.57;0.85;;;;;;;9.25;52.87;98537.94;1703255;83;21418;-69
2022/10/20 09:14:15;;;;;;;1.15;0.80;;;;;;;9.24;53.29;98533.11;1723997;83;21004;-70
2022/10/20 09:16:45;;;;;;;1.00;0.70;;;;;;;9.30;53.12;98530.80;1723972;83;20981;-71
2022/10/20 09:19:19;;;;;;;2.02;0.85;;;;;;;9.34;52.72;98527.21;1679715;84;20979;-71
2022/10/20 09:21:52;;;;;;;1.30;0.90;;;;;;;9.40;53.08;98532.86;1722779;83;21434;-71
2022/10/20 09:24:23;;;;;;;1.80;0.50;;;;;;;9.42;52.05;98531.52;1724305;83;20988;-70
2022/10/20 09:26:50;;;;;;;1.27;0.90;;;;;;;9.45;52.32;98528.81;1712651;83;21343;-71
2022/10/20 09:29:21;;;;;;;1.15;0.70;;;;;;;9.49;53.28;98530.07;1705670;83;21373;-71
2022/10/20 09:31:52;;;;;;;1.30;0.68;;;;;;;9.58;52.50;98525.50;1723993;83;20957;-71
2022/10/20 09:34:28;;;;;;;1.45;0.85;;;;;;;9.62;51.47;98532.49;1724001;83;21028;-71
2022/10/20 09:37:03;;;;;;;0.80;0.70;;;;;;;9.65;51.45;98529.81;1721172;83;21044;-75
2022/10/20 09:39:36;;;;;;;3.15;0.65;;;;;;;9.67;50.82;98537.73;1721188;83;20992;-76
2022/10/20 09:42:08;;;;;;;1.47;0.85;;;;;;;9.73;51.42;98540.26;1724032;80;21039;-76
2022/10/20 09:44:40;;;;;;;1.00;0.80;;;;;;;9.79;52.03;98533.52;1716568;83;21015;-76
2022/10/20 09:47:12;;;;;;;1.30;0.70;;;;;;;9.85;50.59;98537.37;1707879;83;21008;-76
2022/10/20 09:49:39;;;;;;;1.60;0.88;;;;;;;10.01;51.30;98531.83;1714766;83;21035;-76
2022/10/20 09:52:16;;;;;;;1.82;0.75;;;;;;;10.08;49.16;98542.72;1682608;83;21029;-76
2022/10/20 09:54:49;;;;;;;2.37;1.10;;;;;;;9.98;49.06;98526.58;1607511;88;21430;-76
2022/10/20 09:57:19;;;;;;;3.47;0.82;;;;;;;10.01;50.66;98528.71;1660922;86;21481;-76
2022/10/20 09:59:51;;;;;;;1.00;0.70;;;;;;;10.14;49.32;98532.47;1642923;85;21013;-75
2022/10/20 10:02:25;;;;;;;1.00;0.90;;;;;;;10.20;48.62;98526.16;1680179;84;20992;-75
2022/10/20 10:04:57;;;;;;;0.95;0.62;;;;;;;10.23;48.57;98524.34;1679161;84;21066;-75
2022/10/20 10:07:32;;;;;;;2.40;1.25;;;;;;;10.26;49.08;98522.94;1687315;84;21033;-75
2022/10/20 10:10:03;;;;;;;1.47;0.62;;;;;;;10.35;49.32;98513.96;1673559;84;21011;-75
2022/10/20 10:12:33;;;;;;;2.33;0.70;;;;;;;10.38;47.84;98526.27;1674463;84;21047;-75
2022/10/20 10:15:07;;;;;;;1.22;0.70;;;;;;;10.40;48.33;98518.71;1672562;84;21027;-75
2022/10/20 10:17:40;;;;;;;2.58;0.75;;;;;;;10.46;47.20;98520.84;1671710;84;21035;-76
2022/10/20 10:20:18;;;;;;;3.80;0.80;;;;;;;10.47;47.04;98524.80;1689517;83;21035;-75
2022/10/20 10:22:45;;;;;;;1.40;0.60;;;;;;;10.46;47.26;98525.67;1675794;83;21019;-70
2022/10/20 10:25:18;;;;;;;1.42;0.60;;;;;;;10.59;47.46;98520.13;1690271;83;21002;-71
2022/10/20 10:28:05;;;;;;;2.05;0.75;;;;;;;11.01;47.26;98522.72;1679407;83;21023;-71
2022/10/20 10:30:34;;;;;;;1.45;0.70;;;;;;;11.69;47.30;98522.00;1692602;83;21011;-71
2022/10/20 10:33:01;;;;;;;0.90;0.70;;;;;;;13.01;45.42;98501.06;1691867;83;21082;-70
2022/10/20 10:35:38;;;;;;;1.47;0.70;;;;;;;13.97;42.21;98492.17;1691991;83;20999;-71
2022/10/20 10:38:08;;;;;;;1.67;0.95;;;;;;;14.91;42.33;98498.98;1686482;83;21008;-70
2022/10/20 10:40:58;;;;;;;3.70;0.93;;;;;;;15.71;39.71;98481.45;1692786;83;21050;-69
2022/10/20 10:43:39;;;;;;;1.57;0.93;;;;;;;16.48;37.85;98487.51;1689455;83;21033;-68
2022/10/20 10:46:12;;;;;;;4.47;1.00;;;;;;;16.94;35.46;98476.94;1696690;83;21060;-70
2022/10/20 10:49:06;;;;;;;2.10;0.93;;;;;;;17.53;36.11;98478.13;1693449;83;21452;-71
2022/10/20 10:51:58;;;;;;;2.05;1.00;;;;;;;17.51;33.68;98489.38;1695490;83;21027;-70
2022/10/20 10:54:52;;;;;;;2.25;0.80;;;;;;;17.72;33.54;98467.31;1699686;83;21028;-70
2022/10/20 10:57:33;;;;;;;1.20;0.90;;;;;;;18.34;32.59;98467.27;1694620;83;20964;-71
2022/10/20 11:00:05;;;;;;;1.17;0.90;;;;;;;19.02;33.40;98459.99;1678543;83;21071;-70
2022/10/20 11:02:57;;;;;;;1.77;0.90;;;;;;;19.44;31.59;98460.78;1694920;83;21086;-70
2022/10/20 11:05:45;;;;;;;2.33;1.30;;;;;;;19.21;30.90;98457.60;1693198;83;21036;-70
2022/10/20 11:08:35;;;;;;;1.12;0.80;;;;;;;19.32;32.16;98454.30;1696521;83;21535;-70
2022/10/20 11:11:26;;;;;;;1.27;1.07;;;;;;;19.71;30.03;98459.62;1696938;83;20964;-70
2022/10/20 11:14:18;;;;;;;1.57;1.00;;;;;;;20.06;30.37;98450.41;1694643;83;21036;-70
2022/10/20 11:17:02;;;;;;;2.08;0.98;;;;;;;20.31;29.62;98438.97;1692374;83;21074;-70
2022/10/20 11:19:46;;;;;;;1.70;1.10;;;;;;;20.26;28.67;98452.34;1693923;83;20996;-69
2022/10/20 11:22:27;;;;;;;2.47;1.10;;;;;;;20.14;28.51;98445.41;1690606;83;21031;-69
2022/10/20 11:25:23;;;;;;;2.42;1.12;;;;;;;19.15;29.27;98451.25;1697026;83;20989;-70
2022/10/20 11:27:50;;;;;;;1.70;1.00;;;;;;;18.44;31.77;98446.19;1694902;83;21173;-69
2022/10/20 11:30:20;;;;;;;3.27;1.65;;;;;;;17.85;31.75;98444.76;1700699;83;21036;-70
2022/10/20 11:33:20;;;;;;;1.98;1.35;;;;;;;17.28;32.20;98437.34;1692344;83;21384;-70
2022/10/20 11:35:54;;;;;;;3.95;2.55;;;;;;;17.02;32.42;98456.00;1692140;83;21321;-70
2022/10/20 11:38:32;;;;;;;2.40;1.40;;;;;;;16.45;33.99;98444.38;1696703;83;21039;-70
2022/10/20 11:41:25;;;;;;;1.82;1.20;;;;;;;16.41;35.11;98447.28;1655760;84;20983;-69
2022/10/20 11:44:03;;;;;;;2.67;1.45;;;;;;;16.45;34.89;98443.04;1701410;83;20977;-70
2022/10/20 11:46:38;;;;;;;4.65;1.10;;;;;;;16.83;35.27;98438.17;1703188;83;20979;-70
2022/10/20 11:49:05;;;;;;;2.30;0.85;;;;;;;17.70;36.19;98432.16;1724127;83;21011;-70
2022/10/20 11:51:46;;;;;;;2.05;1.05;;;;;;;18.45;35.66;98436.72;1717615;83;20993;-70
2022/10/20 11:54:55;;;;;;;2.12;1.05;;;;;;;18.83;33.25;98451.63;1723955;83;20981;-70
2022/10/20 11:57:58;;;;;;;2.70;1.60;;;;;;;18.83;33.01;98444.04;1724259;83;20977;-69
2022/10/20 12:00:38;;;;;;;3.45;1.00;;;;;;;18.45;31.10;98450.59;1718049;83;21346;-70
2022/10/20 12:03:19;;;;;;;2.72;1.45;;;;;;;17.59;33.69;98450.12;1714942;83;21064;-70